Time;durP1;ratioP1;P1;durP2;ratioP2;P2;SDS_P1;SDS_P2;PMS_P1;PMS_P2;Temp;Humidity;BMP_temperature;BMP_pressure;BME280_temperature;BME280_humidity;BME280_pressure;Samples;Min_cycle;Max_cycle;Signal;HPM_P1;HPM_P2
2024/02/29 00:01:28;;;;;;;;;;;2.30;99.90;;;;;;5067511;28;19951;-62
2024/02/29 00:04:00;;;;;;;;;;;2.20;99.90;;;;;;5055760;28;19928;-63
2024/02/29 00:06:27;;;;;;;;;;;2.20;99.90;;;;;;5058646;28;20015;-63
2024/02/29 00:08:58;;;;;;;;;;;2.10;99.90;;;;;;5059506;28;19925;-62
2024/02/29 00:11:30;;;;;;;;;;;2.00;99.90;;;;;;5059160;28;20398;-63
2024/02/29 00:14:02;;;;;;;;;;;2.00;99.90;;;;;;5057863;28;19964;-63
2024/02/29 00:16:34;;;;;;;;;;;2.00;99.90;;;;;;5055061;28;19925;-62
2024/02/29 00:19:06;;;;;;;;;;;1.90;99.90;;;;;;5061331;28;19935;-62
2024/02/29 00:21:38;;;;;;;;;;;2.00;99.90;;;;;;5053091;28;19929;-63
2024/02/29 00:24:09;;;;;;;;;;;2.00;99.90;;;;;;5054600;28;19924;-63
2024/02/29 00:26:41;;;;;;;;;;;1.90;99.90;;;;;;5054605;28;19925;-63
2024/02/29 00:29:12;;;;;;;;;;;1.90;99.90;;;;;;5064975;28;20019;-62
2024/02/29 00:31:43;;;;;;;;;;;1.90;99.90;;;;;;5055987;28;19944;-62
2024/02/29 00:34:11;;;;;;;;;;;1.90;99.90;;;;;;5058262;28;20019;-63
2024/02/29 00:36:43;;;;;;;;;;;1.90;99.90;;;;;;5066480;28;20388;-62
2024/02/29 00:39:14;;;;;;;;;;;1.90;99.90;;;;;;5060732;28;19953;-63
2024/02/29 00:41:47;;;;;;;;;;;1.90;99.90;;;;;;5050284;28;20297;-63
2024/02/29 00:44:19;;;;;;;;;;;1.80;99.90;;;;;;5054283;28;20006;-63
2024/02/29 00:46:50;;;;;;;;;;;1.80;99.90;;;;;;5053765;28;19935;-63
2024/02/29 00:49:22;;;;;;;;;;;1.70;99.90;;;;;;5058767;28;20301;-63
2024/02/29 00:51:54;;;;;;;;;;;1.70;99.90;;;;;;5051689;28;19928;-62
2024/02/29 00:54:26;;;;;;;;;;;1.80;99.90;;;;;;5053117;28;20373;-63
2024/02/29 00:56:57;;;;;;;;;;;1.70;99.90;;;;;;5064636;28;19924;-63
2024/02/29 00:59:29;;;;;;;;;;;1.70;99.90;;;;;;5060488;28;19925;-63
2024/02/29 01:01:56;;;;;;;;;;;1.70;99.90;;;;;;5065045;28;19964;-63
2024/02/29 01:04:28;;;;;;;;;;;1.60;99.90;;;;;;5065703;28;19932;-63
2024/02/29 01:07:00;;;;;;;;;;;1.60;99.90;;;;;;5056919;28;19928;-62
2024/02/29 01:09:32;;;;;;;;;;;1.60;99.90;;;;;;5066035;28;19929;-63
2024/02/29 01:12:03;;;;;;;;;;;1.60;99.90;;;;;;5065214;28;19928;-63
2024/02/29 01:14:35;;;;;;;;;;;1.50;99.90;;;;;;5054384;28;19960;-63
2024/02/29 01:17:07;;;;;;;;;;;1.50;99.90;;;;;;5054310;28;19947;-64
2024/02/29 01:19:39;;;;;;;;;;;1.50;99.90;;;;;;5040614;28;19929;-62
2024/02/29 01:22:10;;;;;;;;;;;1.50;99.90;;;;;;5062947;28;19925;-62
2024/02/29 01:24:42;;;;;;;;;;;1.50;99.90;;;;;;5067673;28;20039;-63
2024/02/29 01:27:14;;;;;;;;;;;1.50;99.90;;;;;;5070082;28;19924;-63
2024/02/29 01:29:46;;;;;;;;;;;1.50;99.90;;;;;;5063371;28;19934;-63
2024/02/29 01:32:17;;;;;;;;;;;1.40;99.90;;;;;;5061870;28;19929;-62
2024/02/29 01:34:49;;;;;;;;;;;1.40;99.90;;;;;;5059542;28;19925;-64
2024/02/29 01:37:21;;;;;;;;;;;1.30;99.90;;;;;;5061642;28;19933;-63
2024/02/29 01:39:48;;;;;;;;;;;1.30;99.90;;;;;;5071354;28;19936;-63
2024/02/29 01:42:19;;;;;;;;;;;1.20;99.90;;;;;;5058476;28;19925;-62
2024/02/29 01:44:53;;;;;;;;;;;1.10;99.90;;;;;;5072005;28;19931;-62
2024/02/29 01:47:26;;;;;;;;;;;1.10;99.90;;;;;;5055582;28;19979;-62
2024/02/29 01:49:59;;;;;;;;;;;1.00;99.90;;;;;;5057461;28;19968;-62
2024/02/29 01:52:32;;;;;;;;;;;1.00;99.90;;;;;;5060570;28;19956;-62
2024/02/29 01:55:05;;;;;;;;;;;1.00;99.90;;;;;;5062626;28;20415;-62
2024/02/29 01:57:38;;;;;;;;;;;1.00;99.90;;;;;;5065020;28;19924;-62
2024/02/29 02:00:05;;;;;;;;;;;0.90;99.90;;;;;;5065757;28;19983;-62
2024/02/29 02:02:37;;;;;;;;;;;0.90;99.90;;;;;;5057229;28;20270;-62
2024/02/29 02:05:09;;;;;;;;;;;0.90;99.90;;;;;;5055487;28;19929;-62
2024/02/29 02:07:43;;;;;;;;;;;0.80;99.90;;;;;;5053097;28;19968;-62
2024/02/29 02:10:11;;;;;;;;;;;0.80;99.90;;;;;;5052982;28;19932;-62
2024/02/29 02:12:43;;;;;;;;;;;0.80;99.90;;;;;;5068523;28;19935;-62
2024/02/29 02:15:10;;;;;;;;;;;0.80;99.90;;;;;;5067905;28;19931;-62
2024/02/29 02:17:41;;;;;;;;;;;0.80;99.90;;;;;;5059492;28;19924;-62
2024/02/29 02:20:17;;;;;;;;;;;0.80;99.90;;;;;;5061349;28;20020;-62
2024/02/29 02:22:44;;;;;;;;;;;0.80;99.90;;;;;;5062303;28;20005;-62
2024/02/29 02:25:16;;;;;;;;;;;0.80;99.90;;;;;;5052351;28;19998;-62
2024/02/29 02:27:48;;;;;;;;;;;0.80;99.90;;;;;;5066070;28;19925;-62
2024/02/29 02:30:20;;;;;;;;;;;0.80;99.90;;;;;;5055718;28;19924;-62
2024/02/29 02:32:52;;;;;;;;;;;0.90;99.90;;;;;;5068596;28;20023;-62
2024/02/29 02:35:23;;;;;;;;;;;0.90;99.90;;;;;;5071513;28;19924;-62
2024/02/29 02:37:55;;;;;;;;;;;0.90;99.90;;;;;;5064198;28;19994;-62
2024/02/29 02:40:28;;;;;;;;;;;0.90;99.90;;;;;;5067740;28;19983;-62
2024/02/29 02:43:01;;;;;;;;;;;0.90;99.90;;;;;;5066690;28;20451;-62
2024/02/29 02:45:33;;;;;;;;;;;0.80;99.90;;;;;;5063856;28;19924;-62
2024/02/29 02:48:04;;;;;;;;;;;0.80;99.90;;;;;;5062033;28;19932;-62
2024/02/29 02:50:36;;;;;;;;;;;0.90;99.90;;;;;;5060119;28;20032;-62
2024/02/29 02:53:08;;;;;;;;;;;1.00;99.90;;;;;;5058455;28;19929;-62
2024/02/29 02:55:39;;;;;;;;;;;1.10;99.90;;;;;;5056584;28;20023;-62
2024/02/29 02:58:11;;;;;;;;;;;1.10;99.90;;;;;;5069865;28;19931;-63
2024/02/29 03:00:43;;;;;;;;;;;1.10;99.90;;;;;;5056084;28;20285;-62
2024/02/29 03:03:10;;;;;;;;;;;1.20;99.90;;;;;;5052065;28;19931;-62
2024/02/29 03:05:42;;;;;;;;;;;1.20;99.90;;;;;;5054893;28;19951;-62
2024/02/29 03:08:14;;;;;;;;;;;1.30;99.90;;;;;;5069221;28;19963;-62
2024/02/29 03:10:41;;;;;;;;;;;1.30;99.90;;;;;;5063818;28;20292;-62
2024/02/29 03:13:12;;;;;;;;;;;1.30;99.90;;;;;;5061740;28;19929;-62
2024/02/29 03:15:44;;;;;;;;;;;1.30;99.90;;;;;;5061024;28;19924;-62
2024/02/29 03:18:17;;;;;;;;;;;1.30;99.90;;;;;;5059020;28;19931;-62
2024/02/29 03:20:43;;;;;;;;;;;1.40;99.90;;;;;;5056697;28;19935;-62
2024/02/29 03:23:17;;;;;;;;;;;1.40;99.90;;;;;;5060281;28;19932;-62
2024/02/29 03:25:49;;;;;;;;;;;1.40;99.90;;;;;;5053084;28;19931;-62
2024/02/29 03:28:20;;;;;;;;;;;1.40;99.90;;;;;;5051057;28;20438;-62
2024/02/29 03:30:53;;;;;;;;;;;1.40;99.90;;;;;;5065974;28;19946;-62
2024/02/29 03:33:20;;;;;;;;;;;1.40;99.90;;;;;;5067433;28;20015;-62
2024/02/29 03:35:51;;;;;;;;;;;1.40;99.90;;;;;;5064969;28;19931;-63
2024/02/29 03:38:23;;;;;;;;;;;1.40;99.90;;;;;;5059303;28;19936;-62
2024/02/29 03:40:55;;;;;;;;;;;1.40;99.90;;;;;;5061338;28;19979;-62
2024/02/29 03:43:27;;;;;;;;;;;1.30;99.90;;;;;;5063297;28;19928;-62
2024/02/29 03:45:59;;;;;;;;;;;1.30;99.90;;;;;;5064578;28;19924;-62
2024/02/29 03:48:31;;;;;;;;;;;1.30;99.90;;;;;;5067157;28;19925;-62
2024/02/29 03:51:02;;;;;;;;;;;1.30;99.90;;;;;;5068249;28;19924;-62
2024/02/29 03:53:29;;;;;;;;;;;1.30;99.90;;;;;;5070875;28;19932;-62
2024/02/29 03:56:01;;;;;;;;;;;1.40;99.90;;;;;;5069850;28;19936;-62
2024/02/29 03:58:33;;;;;;;;;;;1.40;99.90;;;;;;5063291;28;20024;-62
2024/02/29 04:00:59;;;;;;;;;;;1.40;99.90;;;;;;5056106;28;19935;-62
2024/02/29 04:03:32;;;;;;;;;;;1.40;99.90;;;;;;5064080;28;19924;-62
2024/02/29 04:06:03;;;;;;;;;;;1.50;99.90;;;;;;5061942;28;19935;-62
2024/02/29 04:08:30;;;;;;;;;;;1.50;99.90;;;;;;5060402;28;19949;-62
2024/02/29 04:11:02;;;;;;;;;;;1.50;99.90;;;;;;5057873;28;19968;-62
2024/02/29 04:13:30;;;;;;;;;;;1.60;99.90;;;;;;5056164;28;20315;-62
2024/02/29 04:16:02;;;;;;;;;;;1.60;99.90;;;;;;5067463;28;19924;-62
2024/02/29 04:18:34;;;;;;;;;;;1.60;99.90;;;;;;5069479;28;19924;-62
2024/02/29 04:21:00;;;;;;;;;;;1.70;99.90;;;;;;5070273;28;19936;-62
2024/02/29 04:23:32;;;;;;;;;;;1.70;99.90;;;;;;5065162;28;19940;-62
2024/02/29 04:26:04;;;;;;;;;;;1.70;99.90;;;;;;5054866;28;19974;-62
2024/02/29 04:28:36;;;;;;;;;;;1.70;99.90;;;;;;5064387;28;19947;-62
2024/02/29 04:31:08;;;;;;;;;;;1.70;99.90;;;;;;5058445;28;19928;-62
2024/02/29 04:33:40;;;;;;;;;;;1.70;99.90;;;;;;5060346;28;19960;-62
2024/02/29 04:36:07;;;;;;;;;;;1.60;99.90;;;;;;5061523;28;19934;-62
2024/02/29 04:38:38;;;;;;;;;;;1.60;99.90;;;;;;5059542;28;19932;-62
2024/02/29 04:41:10;;;;;;;;;;;1.60;99.90;;;;;;5069794;28;19929;-62
2024/02/29 04:43:41;;;;;;;;;;;1.60;99.90;;;;;;5071933;28;20296;-62
2024/02/29 04:46:13;;;;;;;;;;;1.60;99.90;;;;;;5073846;28;19924;-62
2024/02/29 04:48:45;;;;;;;;;;;1.60;99.90;;;;;;5073472;28;19931;-62
2024/02/29 04:51:17;;;;;;;;;;;1.60;99.90;;;;;;5057719;28;19960;-62
2024/02/29 04:53:44;;;;;;;;;;;1.60;99.90;;;;;;5058294;28;19935;-64
2024/02/29 04:56:15;;;;;;;;;;;1.60;99.90;;;;;;5062185;28;20385;-62
2024/02/29 04:58:42;;;;;;;;;;;1.50;99.90;;;;;;5062005;28;20384;-63
2024/02/29 05:01:15;;;;;;;;;;;1.40;99.90;;;;;;5062348;28;20011;-63
2024/02/29 05:03:46;;;;;;;;;;;1.40;99.90;;;;;;5078814;28;20035;-63
2024/02/29 05:06:18;;;;;;;;;;;1.30;99.90;;;;;;5064457;28;19928;-63
2024/02/29 05:08:49;;;;;;;;;;;1.30;99.90;;;;;;5066304;28;19928;-63
2024/02/29 05:11:21;;;;;;;;;;;1.20;99.90;;;;;;5062707;28;20025;-62
2024/02/29 05:13:53;;;;;;;;;;;1.20;99.90;;;;;;5055318;28;20564;-62
2024/02/29 05:16:25;;;;;;;;;;;1.20;99.90;;;;;;5061163;28;20039;-63
2024/02/29 05:18:57;;;;;;;;;;;1.20;99.90;;;;;;5066594;28;20296;-62
2024/02/29 05:21:28;;;;;;;;;;;1.10;99.90;;;;;;5068808;28;19989;-63
2024/02/29 05:24:00;;;;;;;;;;;1.10;99.90;;;;;;5065297;28;19971;-63
2024/02/29 05:26:32;;;;;;;;;;;1.10;99.90;;;;;;5062903;28;19975;-63
2024/02/29 05:28:59;;;;;;;;;;;1.10;99.90;;;;;;5062077;28;20392;-63
2024/02/29 05:31:30;;;;;;;;;;;1.10;99.90;;;;;;5063222;28;20507;-63
2024/02/29 05:34:02;;;;;;;;;;;1.10;99.90;;;;;;5069875;28;20348;-63
2024/02/29 05:36:34;;;;;;;;;;;1.10;99.90;;;;;;5057233;28;19951;-63
2024/02/29 05:39:06;;;;;;;;;;;1.10;99.90;;;;;;5059929;28;19990;-63
2024/02/29 05:41:38;;;;;;;;;;;1.10;99.90;;;;;;5065839;28;19956;-63
2024/02/29 05:44:09;;;;;;;;;;;1.20;99.90;;;;;;5057228;28;19928;-63
2024/02/29 05:46:41;;;;;;;;;;;1.20;99.90;;;;;;5063979;28;20308;-63
2024/02/29 05:49:14;;;;;;;;;;;1.20;99.90;;;;;;5063861;28;19925;-62
2024/02/29 05:51:46;;;;;;;;;;;1.20;99.90;;;;;;5065420;28;19928;-63
2024/02/29 05:54:17;;;;;;;;;;;1.20;99.90;;;;;;5062353;28;20019;-63
2024/02/29 05:56:49;;;;;;;;;;;1.20;99.90;;;;;;5070402;28;19928;-63
2024/02/29 05:59:21;;;;;;;;;;;1.30;99.90;;;;;;5063227;28;20011;-63
2024/02/29 06:01:53;;;;;;;;;;;1.30;99.90;;;;;;5063983;28;19932;-62
2024/02/29 06:04:25;;;;;;;;;;;1.30;99.90;;;;;;5049803;28;19963;-63
2024/02/29 06:06:57;;;;;;;;;;;1.40;99.90;;;;;;5062218;28;20043;-63
2024/02/29 06:09:23;;;;;;;;;;;1.30;99.90;;;;;;5067535;28;20019;-62
2024/02/29 06:11:55;;;;;;;;;;;1.40;99.90;;;;;;5070565;28;20411;-63
2024/02/29 06:14:27;;;;;;;;;;;1.40;99.90;;;;;;5062285;28;19928;-63
2024/02/29 06:16:59;;;;;;;;;;;1.40;99.90;;;;;;5068008;28;19990;-63
2024/02/29 06:19:33;;;;;;;;;;;1.50;99.90;;;;;;5066224;28;19928;-63
2024/02/29 06:22:07;;;;;;;;;;;1.50;99.90;;;;;;5068210;28;19936;-63
2024/02/29 06:24:40;;;;;;;;;;;1.60;99.90;;;;;;5064078;28;19983;-63
2024/02/29 06:27:11;;;;;;;;;;;1.60;99.90;;;;;;5069144;28;20023;-63
2024/02/29 06:29:43;;;;;;;;;;;1.50;99.90;;;;;;5063721;28;19929;-63
2024/02/29 06:32:15;;;;;;;;;;;1.50;99.90;;;;;;5058295;28;20014;-63
2024/02/29 06:34:48;;;;;;;;;;;1.50;99.90;;;;;;5065518;28;19928;-62
2024/02/29 06:37:20;;;;;;;;;;;1.60;99.90;;;;;;5061866;28;20357;-63
2024/02/29 06:39:53;;;;;;;;;;;1.60;99.90;;;;;;5062977;28;19924;-63
2024/02/29 06:42:24;;;;;;;;;;;1.60;99.90;;;;;;5064775;28;20045;-63
2024/02/29 06:44:56;;;;;;;;;;;1.60;99.90;;;;;;5064308;28;20423;-63
2024/02/29 06:47:28;;;;;;;;;;;1.70;99.90;;;;;;5062961;28;19933;-63
2024/02/29 06:50:00;;;;;;;;;;;1.70;99.90;;;;;;5060344;28;19925;-63
2024/02/29 06:52:32;;;;;;;;;;;1.80;99.90;;;;;;5065591;28;19928;-62
2024/02/29 06:55:08;;;;;;;;;;;1.80;99.90;;;;;;5058708;28;20293;-63
2024/02/29 06:57:39;;;;;;;;;;;1.90;99.90;;;;;;5057750;28;19933;-63
2024/02/29 07:00:12;;;;;;;;;;;1.90;99.90;;;;;;5060084;28;19936;-63
2024/02/29 07:02:44;;;;;;;;;;;1.90;99.90;;;;;;5058284;28;20581;-63
2024/02/29 07:05:16;;;;;;;;;;;1.90;99.90;;;;;;5063666;28;19931;-63
2024/02/29 07:07:52;;;;;;;;;;;1.90;99.90;;;;;;5063279;28;20023;-62
2024/02/29 07:10:24;;;;;;;;;;;1.90;99.90;;;;;;5060801;28;19936;-63
2024/02/29 07:12:51;;;;;;;;;;;1.90;99.90;;;;;;5064984;28;19931;-63
2024/02/29 07:15:23;;;;;;;;;;;1.90;99.90;;;;;;5057817;28;20392;-63
2024/02/29 07:17:54;;;;;;;;;;;1.90;99.90;;;;;;5061628;28;20007;-63
2024/02/29 07:20:26;;;;;;;;;;;1.90;99.90;;;;;;5059223;28;19935;-63
2024/02/29 07:22:59;;;;;;;;;;;2.00;99.90;;;;;;5057338;28;19928;-63
2024/02/29 07:25:31;;;;;;;;;;;2.00;99.90;;;;;;5061967;28;19924;-63
2024/02/29 07:27:59;;;;;;;;;;;2.00;99.90;;;;;;5060121;28;20381;-63
2024/02/29 07:30:31;;;;;;;;;;;2.00;99.90;;;;;;5056853;28;20464;-63
2024/02/29 07:33:04;;;;;;;;;;;2.10;99.90;;;;;;5058187;28;19925;-63
2024/02/29 07:35:35;;;;;;;;;;;2.10;99.90;;;;;;5059383;28;20085;-63
2024/02/29 07:38:07;;;;;;;;;;;2.20;99.90;;;;;;5061029;28;20048;-63
2024/02/29 07:40:34;;;;;;;;;;;2.20;99.90;;;;;;5060176;28;19928;-63
2024/02/29 07:43:06;;;;;;;;;;;2.30;99.90;;;;;;5062264;28;20024;-63
2024/02/29 07:45:38;;;;;;;;;;;2.30;99.90;;;;;;5056541;28;19983;-63
2024/02/29 07:48:05;;;;;;;;;;;2.30;99.90;;;;;;5056986;28;19924;-63
2024/02/29 07:50:37;;;;;;;;;;;2.40;99.90;;;;;;5063740;28;19932;-63
2024/02/29 07:53:03;;;;;;;;;;;2.40;99.90;;;;;;5062862;28;19929;-63
2024/02/29 07:55:30;;;;;;;;;;;2.50;99.90;;;;;;5056169;28;19932;-63
2024/02/29 07:58:03;;;;;;;;;;;2.50;99.90;;;;;;5059737;28;20348;-63
2024/02/29 08:00:30;;;;;;;;;;;2.50;99.90;;;;;;5057726;28;19947;-63
2024/02/29 08:03:02;;;;;;;;;;;2.60;99.90;;;;;;5060110;28;19925;-63
2024/02/29 08:05:38;;;;;;;;;;;2.60;99.90;;;;;;5061271;28;19979;-63
2024/02/29 08:08:11;;;;;;;;;;;2.70;99.90;;;;;;5059951;28;20427;-63
2024/02/29 08:10:43;;;;;;;;;;;2.70;99.90;;;;;;5061750;28;19932;-63
2024/02/29 08:13:10;;;;;;;;;;;2.70;99.90;;;;;;5064481;28;19932;-63
2024/02/29 08:15:42;;;;;;;;;;;2.80;99.90;;;;;;5056338;28;19933;-63
2024/02/29 08:18:13;;;;;;;;;;;2.80;99.90;;;;;;5053031;28;19928;-63
2024/02/29 08:20:45;;;;;;;;;;;2.90;99.90;;;;;;5061433;28;20445;-63
2024/02/29 08:23:17;;;;;;;;;;;2.90;99.90;;;;;;5060142;28;19924;-63
2024/02/29 08:25:44;;;;;;;;;;;3.00;99.90;;;;;;5058146;28;19964;-63
2024/02/29 08:28:16;;;;;;;;;;;3.00;99.90;;;;;;5059703;28;20015;-63
2024/02/29 08:30:43;;;;;;;;;;;3.10;99.90;;;;;;5057544;28;20289;-63
2024/02/29 08:33:15;;;;;;;;;;;3.20;99.90;;;;;;5060825;28;19928;-63
2024/02/29 08:35:42;;;;;;;;;;;3.20;99.90;;;;;;5058288;28;19932;-63
2024/02/29 08:38:14;;;;;;;;;;;3.20;99.90;;;;;;5058170;28;19928;-63
2024/02/29 08:40:45;;;;;;;;;;;3.20;99.90;;;;;;5058411;28;20427;-63
2024/02/29 08:43:19;;;;;;;;;;;3.30;99.90;;;;;;5057834;28;19931;-63
2024/02/29 08:45:52;;;;;;;;;;;3.30;99.90;;;;;;5059494;28;19925;-63
2024/02/29 08:48:19;;;;;;;;;;;3.40;99.90;;;;;;5053612;28;19936;-63
2024/02/29 08:50:50;;;;;;;;;;;3.40;99.90;;;;;;5057461;28;20459;-63
2024/02/29 08:53:22;;;;;;;;;;;3.50;99.90;;;;;;5061374;28;20062;-63
2024/02/29 08:55:49;;;;;;;;;;;3.50;99.90;;;;;;5059543;28;19975;-63
2024/02/29 08:58:21;;;;;;;;;;;3.60;99.90;;;;;;5062315;28;19935;-63
2024/02/29 09:00:54;;;;;;;;;;;3.60;99.90;;;;;;5062604;28;19929;-63
2024/02/29 09:03:26;;;;;;;;;;;3.70;99.90;;;;;;5063082;28;19947;-63
2024/02/29 09:05:57;;;;;;;;;;;3.70;99.90;;;;;;5058813;28;19928;-63
2024/02/29 09:08:29;;;;;;;;;;;3.80;99.90;;;;;;5058441;28;19932;-63
2024/02/29 09:11:01;;;;;;;;;;;3.90;99.90;;;;;;5059145;28;19975;-63
2024/02/29 09:13:33;;;;;;;;;;;3.90;99.90;;;;;;5065865;28;19925;-63
2024/02/29 09:16:06;;;;;;;;;;;4.00;99.90;;;;;;5055581;28;19928;-63
2024/02/29 09:18:39;;;;;;;;;;;4.10;99.90;;;;;;5057647;28;19958;-63
2024/02/29 09:21:11;;;;;;;;;;;4.10;99.90;;;;;;5062896;28;19929;-63
2024/02/29 09:23:37;;;;;;;;;;;4.20;99.90;;;;;;5067885;28;19928;-63
2024/02/29 09:26:12;;;;;;;;;;;4.30;99.90;;;;;;5065182;28;20007;-63
2024/02/29 09:28:44;;;;;;;;;;;4.30;99.90;;;;;;5062420;28;19924;-63
2024/02/29 09:31:19;;;;;;;;;;;4.40;99.90;;;;;;5066178;28;20011;-63
2024/02/29 09:33:53;;;;;;;;;;;4.50;99.90;;;;;;5067746;28;19929;-63
2024/02/29 09:36:25;;;;;;;;;;;4.60;99.90;;;;;;5056924;28;19982;-63
2024/02/29 09:38:52;;;;;;;;;;;4.70;99.90;;;;;;5064001;28;19932;-63
2024/02/29 09:41:24;;;;;;;;;;;4.80;99.90;;;;;;5066090;28;19928;-63
2024/02/29 09:43:56;;;;;;;;;;;4.90;99.90;;;;;;5063630;28;20011;-63
2024/02/29 09:46:27;;;;;;;;;;;4.90;99.90;;;;;;5067894;28;19936;-63
2024/02/29 09:49:00;;;;;;;;;;;5.00;99.90;;;;;;5066652;28;19939;-63
2024/02/29 09:51:32;;;;;;;;;;;5.10;99.90;;;;;;5063006;28;19933;-63
2024/02/29 09:54:04;;;;;;;;;;;5.20;99.90;;;;;;5063187;28;20400;-63
2024/02/29 09:56:36;;;;;;;;;;;5.20;99.90;;;;;;5062327;28;19924;-63
2024/02/29 09:59:12;;;;;;;;;;;5.30;99.90;;;;;;5056330;28;19964;-63
2024/02/29 10:01:46;;;;;;;;;;;5.40;99.90;;;;;;5059131;28;19933;-63
2024/02/29 10:04:18;;;;;;;;;;;5.40;99.90;;;;;;5063373;28;19939;-63
2024/02/29 10:06:49;;;;;;;;;;;5.50;99.90;;;;;;5055092;28;19964;-63
2024/02/29 10:09:21;;;;;;;;;;;5.60;99.90;;;;;;5058856;28;19935;-63
2024/02/29 10:11:55;;;;;;;;;;;5.70;99.90;;;;;;5061119;28;20336;-63
2024/02/29 10:14:26;;;;;;;;;;;5.70;99.90;;;;;;5063583;28;20015;-63
2024/02/29 10:16:58;;;;;;;;;;;5.80;99.90;;;;;;5063272;28;19935;-65
2024/02/29 10:19:33;;;;;;;;;;;5.80;99.90;;;;;;5062902;28;19924;-63
2024/02/29 10:22:04;;;;;;;;;;;5.90;99.90;;;;;;5061243;28;19928;-63
2024/02/29 10:24:36;;;;;;;;;;;5.90;99.90;;;;;;5060593;28;20364;-63
2024/02/29 10:27:08;;;;;;;;;;;6.00;99.90;;;;;;5059950;28;19924;-63
2024/02/29 10:29:40;;;;;;;;;;;6.10;99.90;;;;;;5061490;28;19965;-63
2024/02/29 10:32:14;;;;;;;;;;;6.20;99.90;;;;;;5058987;28;19928;-63
2024/02/29 10:34:46;;;;;;;;;;;6.20;99.90;;;;;;5066743;28;19936;-63
2024/02/29 10:37:18;;;;;;;;;;;6.20;99.90;;;;;;5063346;28;20404;-63
2024/02/29 10:39:44;;;;;;;;;;;6.30;99.90;;;;;;5059316;28;19991;-63
2024/02/29 10:42:11;;;;;;;;;;;6.40;99.90;;;;;;5065090;28;19928;-63
2024/02/29 10:44:44;;;;;;;;;;;6.40;99.90;;;;;;5065964;28;19928;-63
2024/02/29 10:47:16;;;;;;;;;;;6.60;99.90;;;;;;5062594;28;20409;-63
2024/02/29 10:49:49;;;;;;;;;;;6.60;99.90;;;;;;5061274;28;19929;-63
2024/02/29 10:52:26;;;;;;;;;;;6.70;99.90;;;;;;5062262;28;19936;-63
2024/02/29 10:55:02;;;;;;;;;;;6.80;99.90;;;;;;5054267;28;20586;-63
2024/02/29 10:57:40;;;;;;;;;;;6.90;99.90;;;;;;5061507;28;19947;-63
2024/02/29 11:00:12;;;;;;;;;;;7.00;99.90;;;;;;5061880;28;19932;-63
2024/02/29 11:02:44;;;;;;;;;;;7.00;99.90;;;;;;5060508;28;20015;-63
2024/02/29 11:05:17;;;;;;;;;;;7.00;99.90;;;;;;5058270;28;19928;-63
2024/02/29 11:07:49;;;;;;;;;;;7.10;99.90;;;;;;5063386;28;19924;-63
2024/02/29 11:10:21;;;;;;;;;;;7.20;99.90;;;;;;5062587;28;19977;-63
2024/02/29 11:12:56;;;;;;;;;;;7.20;99.90;;;;;;5061247;28;19925;-63
2024/02/29 11:15:29;;;;;;;;;;;7.30;99.90;;;;;;5062465;28;19929;-63
2024/02/29 11:18:00;;;;;;;;;;;7.40;99.90;;;;;;5060506;28;20434;-63
2024/02/29 11:20:27;;;;;;;;;;;7.40;99.90;;;;;;5059774;28;19929;-63
2024/02/29 11:23:03;;;;;;;;;;;7.40;99.90;;;;;;5059733;28;20004;-63
2024/02/29 11:25:30;;;;;;;;;;;7.40;99.90;;;;;;5054118;28;20023;-63
2024/02/29 11:28:03;;;;;;;;;;;7.50;99.90;;;;;;5063595;28;19932;-63
2024/02/29 11:30:35;;;;;;;;;;;7.50;99.90;;;;;;5057435;28;19925;-63
2024/02/29 11:33:08;;;;;;;;;;;7.50;99.90;;;;;;5062225;28;19929;-63
2024/02/29 11:35:35;;;;;;;;;;;7.50;99.90;;;;;;5061823;28;20351;-63
2024/02/29 11:38:09;;;;;;;;;;;7.60;99.90;;;;;;5061053;28;19929;-63
2024/02/29 11:40:40;;;;;;;;;;;7.60;99.90;;;;;;5057640;28;19951;-63
2024/02/29 11:43:13;;;;;;;;;;;7.60;99.90;;;;;;5063668;28;20154;-63
2024/02/29 11:45:44;;;;;;;;;;;7.60;99.90;;;;;;5054467;28;19925;-63
2024/02/29 11:48:16;;;;;;;;;;;7.60;99.90;;;;;;5053657;28;19935;-63
2024/02/29 11:50:43;;;;;;;;;;;7.70;99.90;;;;;;5061963;28;19932;-63
2024/02/29 11:53:15;;;;;;;;;;;7.70;99.90;;;;;;5055862;28;19934;-63
2024/02/29 11:55:47;;;;;;;;;;;7.70;99.90;;;;;;5058215;28;20563;-62
2024/02/29 11:58:22;;;;;;;;;;;7.70;99.90;;;;;;5062319;28;20015;-63
2024/02/29 12:00:54;;;;;;;;;;;7.80;99.90;;;;;;5057884;28;19955;-63
2024/02/29 12:03:27;;;;;;;;;;;7.80;99.90;;;;;;5062270;28;19938;-64
2024/02/29 12:05:59;;;;;;;;;;;7.90;99.90;;;;;;5061421;28;19972;-63
2024/02/29 12:08:32;;;;;;;;;;;7.90;99.90;;;;;;5066038;28;20415;-63
2024/02/29 12:10:59;;;;;;;;;;;8.00;99.90;;;;;;5057064;28;20384;-64
2024/02/29 12:13:31;;;;;;;;;;;8.10;99.90;;;;;;5054464;28;19947;-63
2024/02/29 12:16:04;;;;;;;;;;;8.10;99.90;;;;;;5058773;28;19960;-63
2024/02/29 12:18:33;;;;;;;;;;;8.10;99.90;;;;;;5052800;28;19929;-63
2024/02/29 12:21:05;;;;;;;;;;;8.10;99.90;;;;;;5062626;28;20404;-63
2024/02/29 12:23:38;;;;;;;;;;;8.10;99.90;;;;;;5061973;28;19928;-63
2024/02/29 12:26:10;;;;;;;;;;;8.20;99.90;;;;;;5061976;28;19924;-63
2024/02/29 12:28:42;;;;;;;;;;;8.20;99.90;;;;;;5064283;28;19929;-63
2024/02/29 12:31:14;;;;;;;;;;;8.20;99.90;;;;;;5062804;28;20360;-63
2024/02/29 12:33:42;;;;;;;;;;;8.30;99.90;;;;;;5056523;28;20004;-63
2024/02/29 12:36:17;;;;;;;;;;;8.30;99.90;;;;;;5060014;28;20051;-63
2024/02/29 12:38:48;;;;;;;;;;;8.40;99.90;;;;;;5063294;28;20428;-63
2024/02/29 12:41:25;;;;;;;;;;;8.50;99.90;;;;;;5046114;28;19970;-63
2024/02/29 12:43:59;;;;;;;;;;;8.50;99.90;;;;;;5061462;28;19924;-63
2024/02/29 12:46:31;;;;;;;;;;;8.50;99.90;;;;;;5057773;28;19932;-63
2024/02/29 12:49:03;;;;;;;;;;;8.60;99.90;;;;;;5054897;28;19929;-63
2024/02/29 12:51:35;;;;;;;;;;;8.60;99.90;;;;;;5058573;28;20392;-63
2024/02/29 12:54:07;;;;;;;;;;;8.60;99.90;;;;;;5061693;28;20881;-65
2024/02/29 12:56:39;;;;;;;;;;;8.60;99.90;;;;;;5063350;28;19929;-63
2024/02/29 12:59:07;;;;;;;;;;;8.60;99.90;;;;;;5057051;28;19932;-64
2024/02/29 13:01:38;;;;;;;;;;;8.60;99.90;;;;;;5060725;28;19929;-64
2024/02/29 13:04:10;;;;;;;;;;;8.60;99.90;;;;;;5070685;28;20465;-63
2024/02/29 13:06:42;;;;;;;;;;;8.70;99.90;;;;;;5065981;28;20028;-63
2024/02/29 13:09:19;;;;;;;;;;;8.70;99.90;;;;;;5060905;28;20047;-63
2024/02/29 13:11:51;;;;;;;;;;;8.70;99.90;;;;;;5065315;28;20613;-63
2024/02/29 13:14:22;;;;;;;;;;;8.90;99.90;;;;;;5070202;28;20154;-63
2024/02/29 13:16:54;;;;;;;;;;;9.00;99.90;;;;;;5061994;28;19967;-64
2024/02/29 13:19:26;;;;;;;;;;;9.10;99.90;;;;;;5068637;28;19960;-63
2024/02/29 13:21:52;;;;;;;;;;;9.20;99.90;;;;;;5068972;28;19929;-63
2024/02/29 13:24:24;;;;;;;;;;;9.20;99.90;;;;;;5061767;28;19925;-62
2024/02/29 13:26:56;;;;;;;;;;;9.20;99.90;;;;;;5068799;28;19952;-63
2024/02/29 13:29:28;;;;;;;;;;;9.20;99.90;;;;;;5069678;28;21242;-65
2024/02/29 13:31:59;;;;;;;;;;;9.20;99.90;;;;;;5059923;28;19956;-63
2024/02/29 13:34:31;;;;;;;;;;;9.20;99.90;;;;;;5060784;28;19928;-63
2024/02/29 13:37:04;;;;;;;;;;;9.20;99.90;;;;;;5061808;28;20023;-63
2024/02/29 13:39:31;;;;;;;;;;;9.20;99.90;;;;;;5062379;28;20020;-62
2024/02/29 13:42:05;;;;;;;;;;;9.20;99.90;;;;;;5060089;28;19986;-63
2024/02/29 13:44:32;;;;;;;;;;;9.30;99.90;;;;;;5057433;28;19964;-63
2024/02/29 13:46:59;;;;;;;;;;;9.20;99.90;;;;;;5065023;28;19924;-63
2024/02/29 13:49:32;;;;;;;;;;;9.30;99.90;;;;;;5059844;28;19925;-63
2024/02/29 13:51:58;;;;;;;;;;;9.30;99.90;;;;;;5066753;28;19928;-63
2024/02/29 13:54:30;;;;;;;;;;;9.30;99.90;;;;;;5062148;28;20426;-63
2024/02/29 13:56:57;;;;;;;;;;;9.30;99.90;;;;;;5063181;28;19928;-62
2024/02/29 13:59:24;;;;;;;;;;;9.40;99.90;;;;;;5065386;28;19935;-63
2024/02/29 14:01:55;;;;;;;;;;;9.30;99.90;;;;;;5049390;28;19932;-63
2024/02/29 14:04:27;;;;;;;;;;;9.30;99.90;;;;;;5059810;28;19964;-63
2024/02/29 14:06:55;;;;;;;;;;;9.20;99.90;;;;;;5064473;28;20343;-63
2024/02/29 14:09:26;;;;;;;;;;;9.20;99.90;;;;;;5062842;28;19936;-63
2024/02/29 14:11:58;;;;;;;;;;;9.10;99.90;;;;;;5065448;28;19983;-63
2024/02/29 14:14:30;;;;;;;;;;;9.10;99.90;;;;;;5063864;28;19932;-63
2024/02/29 14:17:03;;;;;;;;;;;9.00;99.90;;;;;;5065231;28;19932;-64
2024/02/29 14:19:35;;;;;;;;;;;9.00;99.90;;;;;;5061836;28;20020;-63
2024/02/29 14:22:07;;;;;;;;;;;9.00;99.90;;;;;;5058840;28;19978;-63
2024/02/29 14:24:38;;;;;;;;;;;8.90;99.90;;;;;;5075840;28;20320;-63
2024/02/29 14:27:12;;;;;;;;;;;9.00;99.90;;;;;;5063394;28;19925;-62
2024/02/29 14:29:44;;;;;;;;;;;8.90;99.90;;;;;;5065857;28;19947;-63
2024/02/29 14:32:16;;;;;;;;;;;8.90;99.90;;;;;;5059826;28;19925;-63
2024/02/29 14:34:48;;;;;;;;;;;8.80;99.90;;;;;;5060745;28;19947;-63
2024/02/29 14:37:20;;;;;;;;;;;8.80;99.90;;;;;;5060981;28;19928;-63
2024/02/29 14:39:52;;;;;;;;;;;8.80;99.90;;;;;;5061269;28;19928;-63
2024/02/29 14:42:23;;;;;;;;;;;8.80;99.90;;;;;;5065302;28;19931;-63
2024/02/29 14:44:55;;;;;;;;;;;8.80;99.90;;;;;;5061107;28;19925;-63
2024/02/29 14:47:27;;;;;;;;;;;8.80;99.90;;;;;;5059754;28;20415;-63
2024/02/29 14:49:59;;;;;;;;;;;8.80;99.90;;;;;;5058718;28;19972;-63
2024/02/29 14:52:30;;;;;;;;;;;8.80;99.90;;;;;;5053919;28;19971;-63
2024/02/29 14:54:57;;;;;;;;;;;8.90;99.90;;;;;;5068358;28;19999;-63